Carlsbad Caverns National Park, NM

3:28 PM MDT on September 16, 2014 (GMT -0600)
KNMCARLS3 | Change Station
CLOSE
Current Station
Personal Weather Station
Location: Carlsbad, NM
Elevation: 3158 ft
Nearby Weather Stations
Active Advisory: Special Statement

Elev 3158 ft 32.43 °N, 104.25 °W | Updated 1 second ago

Mostly Cloudy
Mostly Cloudy
77.6 °F
Feels Like 80 °F
N
0.0
Wind Variable Wind from North
Gusts 0.0 mph

Today
High -- | Low -- °F
--% Chance of Precip.
Yesterday
High -- | Low -- °F
Precip. -- in
6:41 AM 7:01 PM
Last Quarter, 42% visible
Pressure 30.13 in
Visibility 10.0 miles
Clouds Few 2500 ft
Scattered Clouds 4100 ft
Heat Index 80 °F
Dew Point 67 °F
Humidity 71%
Rainfall 0.09 in
Snow Depth 2 in , 1 in , 0 in
UV 6 out of 12
Pollen 8.10 out of 12
Air Quality Not available.
Flu Activity Not available.
SPECI KCNM 162108Z AUTO 02005KT 10SM FEW025 SCT041 25/21 A3013 RMK AO2 T02500206

More Conditions Fewer Conditions

Pressure 30.13 in
Visibility 10.0 miles
Clouds Few 2500 ft
Scattered Clouds 4100 ft
Heat Index 80 °F
Dew Point 67 °F
Humidity 71%
Rainfall 0.09 in
Snow Depth 2 in , 1 in , 0 in
UV 6 out of 12
Pollen 8.10 out of 12
Air Quality Not available.
Flu Activity Not available.
SPECI KCNM 162108Z AUTO 02005KT 10SM FEW025 SCT041 25/21 A3013 RMK AO2 T02500206

More Conditions Fewer Conditions

10-Day Weather Forecast

Almanac

Astronomy

Sep. 16, 2014 Rise Set
Actual Time 6:41 AM MDT 7:01 PM MDT
Civil Twilight 6:16 AM MDT 7:26 PM MDT
Nautical Twilight 5:48 AM MDT 7:54 PM MDT
Astronomical Twilight 5:18 AM MDT 8:23 PM MDT
Moon 12:07 AM MDT 2:12 PM MDT
Length of Visible Light 13h 09m
Length of Day
12h 20m
Tomorrow will be 1m 59s shorter.
Last Quarter, 42% of the Moon is Illuminated
Today
Last Quarter
Sep 24
New
Oct 1
First Quarter
Oct 8
Full
Oct 15
Last Quarter

Today's Extremes

State Highs State Lows

Community

WunderPhotos

Upload Photos

1,753,888 photos uploaded!

Nearby

Snow Depth

Station Depth Elevation
Silver Creek Divide 2 in 9000 ft
Sierra Blanca 1 in 10280 ft
Quemazon 0 in 9500 ft
North Costilla 0 in 10600 ft
McKnight Cabin 0 in 9240 ft

Earthquake Activity

City Distance Mag. Time & Date
No recent earthquake activity has been reported nearby.
Minimum magnitude displayed is 2.5.

Coastal Water Temperatures

Place Temperature
No Stations Reporting

Nearby Weather Stations